sensor_id;sensor_type;location;lat;lon;timestamp;temperature;humidity
5759;DHT22;2904;48.788;9.196;2022-10-16T00:01:20;19.50;99.90
5759;DHT22;2904;48.788;9.196;2022-10-16T00:03:46;16.60;99.90
5759;DHT22;2904;48.788;9.196;2022-10-16T00:06:13;16.60;99.90
5759;DHT22;2904;48.788;9.196;2022-10-16T00:08:40;16.50;99.90
5759;DHT22;2904;48.788;9.196;2022-10-16T00:11:08;16.50;99.90
5759;DHT22;2904;48.788;9.196;2022-10-16T00:13:36;16.50;99.90
5759;DHT22;2904;48.788;9.196;2022-10-16T00:16:02;16.50;99.90
5759;DHT22;2904;48.788;9.196;2022-10-16T00:18:28;16.40;99.90
5759;DHT22;2904;48.788;9.196;2022-10-16T00:20:55;16.40;99.90
5759;DHT22;2904;48.788;9.196;2022-10-16T00:23:21;16.40;99.90
5759;DHT22;2904;48.788;9.196;2022-10-16T00:26:02;18.80;99.90
5759;DHT22;2904;48.788;9.196;2022-10-16T00:28:29;16.40;99.90
5759;DHT22;2904;48.788;9.196;2022-10-16T00:30:55;16.40;99.90
5759;DHT22;2904;48.788;9.196;2022-10-16T00:33:21;16.40;99.90
5759;DHT22;2904;48.788;9.196;2022-10-16T00:35:47;16.30;99.90
5759;DHT22;2904;48.788;9.196;2022-10-16T00:38:13;16.30;99.90
5759;DHT22;2904;48.788;9.196;2022-10-16T00:40:39;16.30;99.90
5759;DHT22;2904;48.788;9.196;2022-10-16T00:43:43;16.20;99.90
5759;DHT22;2904;48.788;9.196;2022-10-16T00:46:54;16.20;99.90
5759;DHT22;2904;48.788;9.196;2022-10-16T00:49:20;16.10;99.90
5759;DHT22;2904;48.788;9.196;2022-10-16T00:51:52;16.10;99.90
5759;DHT22;2904;48.788;9.196;2022-10-16T00:54:30;16.10;99.90
5759;DHT22;2904;48.788;9.196;2022-10-16T00:56:58;16.10;99.90
5759;DHT22;2904;48.788;9.196;2022-10-16T00:59:33;16.00;99.90
5759;DHT22;2904;48.788;9.196;2022-10-16T01:02:00;16.00;99.90
5759;DHT22;2904;48.788;9.196;2022-10-16T01:04:30;16.00;99.90
5759;DHT22;2904;48.788;9.196;2022-10-16T01:08:34;16.00;99.90
5759;DHT22;2904;48.788;9.196;2022-10-16T01:11:17;16.00;99.90
5759;DHT22;2904;48.788;9.196;2022-10-16T01:13:51;16.10;99.90
5759;DHT22;2904;48.788;9.196;2022-10-16T01:16:36;16.10;99.90
5759;DHT22;2904;48.788;9.196;2022-10-16T01:23:58;16.10;99.90
5759;DHT22;2904;48.788;9.196;2022-10-16T01:33:20;16.20;99.90
5759;DHT22;2904;48.788;9.196;2022-10-16T01:35:52;16.20;99.90
5759;DHT22;2904;48.788;9.196;2022-10-16T01:38:33;16.20;99.90
5759;DHT22;2904;48.788;9.196;2022-10-16T01:41:03;16.20;99.90
5759;DHT22;2904;48.788;9.196;2022-10-16T01:43:36;16.20;99.90
5759;DHT22;2904;48.788;9.196;2022-10-16T01:46:04;16.30;99.90
5759;DHT22;2904;48.788;9.196;2022-10-16T01:48:31;16.30;99.90
5759;DHT22;2904;48.788;9.196;2022-10-16T01:51:12;16.30;99.90
5759;DHT22;2904;48.788;9.196;2022-10-16T01:53:40;16.30;99.90
5759;DHT22;2904;48.788;9.196;2022-10-16T01:56:09;16.30;99.90
5759;DHT22;2904;48.788;9.196;2022-10-16T01:58:43;16.20;99.90
5759;DHT22;2904;48.788;9.196;2022-10-16T02:01:11;16.20;99.90
5759;DHT22;2904;48.788;9.196;2022-10-16T02:03:40;16.20;99.90
5759;DHT22;2904;48.788;9.196;2022-10-16T02:06:08;16.30;99.90
5759;DHT22;2904;48.788;9.196;2022-10-16T02:08:34;16.30;99.90
5759;DHT22;2904;48.788;9.196;2022-10-16T02:11:00;16.20;99.90
5759;DHT22;2904;48.788;9.196;2022-10-16T02:13:37;16.30;99.90
5759;DHT22;2904;48.788;9.196;2022-10-16T02:16:04;16.30;99.90
5759;DHT22;2904;48.788;9.196;2022-10-16T02:18:30;16.30;99.90
5759;DHT22;2904;48.788;9.196;2022-10-16T02:21:02;16.30;99.90
5759;DHT22;2904;48.788;9.196;2022-10-16T02:23:43;16.30;99.90
5759;DHT22;2904;48.788;9.196;2022-10-16T02:26:15;16.30;99.90
5759;DHT22;2904;48.788;9.196;2022-10-16T02:28:50;16.30;99.90
5759;DHT22;2904;48.788;9.196;2022-10-16T02:31:23;16.30;99.90
5759;DHT22;2904;48.788;9.196;2022-10-16T02:33:51;16.20;99.90
5759;DHT22;2904;48.788;9.196;2022-10-16T02:36:18;16.20;99.90
5759;DHT22;2904;48.788;9.196;2022-10-16T02:38:44;16.20;99.90
5759;DHT22;2904;48.788;9.196;2022-10-16T02:41:10;16.20;99.90
5759;DHT22;2904;48.788;9.196;2022-10-16T02:43:35;16.10;99.90
5759;DHT22;2904;48.788;9.196;2022-10-16T02:48:27;16.10;99.90
5759;DHT22;2904;48.788;9.196;2022-10-16T02:50:53;16.10;99.90
5759;DHT22;2904;48.788;9.196;2022-10-16T02:53:18;16.10;99.90
5759;DHT22;2904;48.788;9.196;2022-10-16T02:55:44;16.10;99.90
5759;DHT22;2904;48.788;9.196;2022-10-16T02:58:10;16.00;99.90
5759;DHT22;2904;48.788;9.196;2022-10-16T03:00:36;16.00;99.90
5759;DHT22;2904;48.788;9.196;2022-10-16T03:03:01;16.00;99.90
5759;DHT22;2904;48.788;9.196;2022-10-16T03:05:27;16.00;99.90
5759;DHT22;2904;48.788;9.196;2022-10-16T03:07:52;16.00;99.90
5759;DHT22;2904;48.788;9.196;2022-10-16T03:10:18;16.00;99.90
5759;DHT22;2904;48.788;9.196;2022-10-16T03:12:44;15.90;99.90
5759;DHT22;2904;48.788;9.196;2022-10-16T03:15:09;15.90;99.90
5759;DHT22;2904;48.788;9.196;2022-10-16T03:17:35;15.80;99.90
5759;DHT22;2904;48.788;9.196;2022-10-16T03:20:01;15.80;99.90
5759;DHT22;2904;48.788;9.196;2022-10-16T03:22:26;15.80;99.90
5759;DHT22;2904;48.788;9.196;2022-10-16T03:24:52;15.80;99.90
5759;DHT22;2904;48.788;9.196;2022-10-16T03:27:18;15.80;99.90
5759;DHT22;2904;48.788;9.196;2022-10-16T03:29:43;15.80;99.90
5759;DHT22;2904;48.788;9.196;2022-10-16T03:32:09;15.80;99.90
5759;DHT22;2904;48.788;9.196;2022-10-16T03:34:35;15.70;99.90
5759;DHT22;2904;48.788;9.196;2022-10-16T03:37:00;15.70;99.90
5759;DHT22;2904;48.788;9.196;2022-10-16T03:39:26;15.70;99.90
5759;DHT22;2904;48.788;9.196;2022-10-16T03:41:52;15.70;99.90
5759;DHT22;2904;48.788;9.196;2022-10-16T03:44:18;15.70;99.90
5759;DHT22;2904;48.788;9.196;2022-10-16T03:46:43;15.70;99.90
5759;DHT22;2904;48.788;9.196;2022-10-16T03:49:09;15.60;99.90
5759;DHT22;2904;48.788;9.196;2022-10-16T03:51:34;15.60;99.90
5759;DHT22;2904;48.788;9.196;2022-10-16T03:54:00;15.60;99.90
5759;DHT22;2904;48.788;9.196;2022-10-16T03:56:26;15.60;99.90
5759;DHT22;2904;48.788;9.196;2022-10-16T03:58:51;15.60;99.90
5759;DHT22;2904;48.788;9.196;2022-10-16T04:01:17;15.50;99.90
5759;DHT22;2904;48.788;9.196;2022-10-16T04:03:42;15.50;99.90
5759;DHT22;2904;48.788;9.196;2022-10-16T04:06:08;15.50;99.90
5759;DHT22;2904;48.788;9.196;2022-10-16T04:08:34;15.50;99.90
5759;DHT22;2904;48.788;9.196;2022-10-16T04:11:02;15.50;99.90
5759;DHT22;2904;48.788;9.196;2022-10-16T04:13:28;15.50;99.90
5759;DHT22;2904;48.788;9.196;2022-10-16T04:15:54;15.50;99.90
5759;DHT22;2904;48.788;9.196;2022-10-16T04:18:19;15.40;99.90
5759;DHT22;2904;48.788;9.196;2022-10-16T04:20:45;15.50;99.90
5759;DHT22;2904;48.788;9.196;2022-10-16T04:23:11;15.40;99.90
5759;DHT22;2904;48.788;9.196;2022-10-16T04:25:37;15.40;99.90
5759;DHT22;2904;48.788;9.196;2022-10-16T04:28:02;15.40;99.90
5759;DHT22;2904;48.788;9.196;2022-10-16T04:30:28;15.50;99.90
5759;DHT22;2904;48.788;9.196;2022-10-16T04:32:54;15.40;99.90
5759;DHT22;2904;48.788;9.196;2022-10-16T04:35:21;15.40;99.90
5759;DHT22;2904;48.788;9.196;2022-10-16T04:37:47;15.40;99.90
5759;DHT22;2904;48.788;9.196;2022-10-16T04:40:13;15.40;99.90
5759;DHT22;2904;48.788;9.196;2022-10-16T04:42:39;15.40;99.90
5759;DHT22;2904;48.788;9.196;2022-10-16T04:45:06;15.40;99.90
5759;DHT22;2904;48.788;9.196;2022-10-16T04:47:33;15.40;99.90
5759;DHT22;2904;48.788;9.196;2022-10-16T04:49:59;15.40;99.90
5759;DHT22;2904;48.788;9.196;2022-10-16T04:52:27;15.40;99.90
5759;DHT22;2904;48.788;9.196;2022-10-16T04:54:53;15.30;99.90
5759;DHT22;2904;48.788;9.196;2022-10-16T04:57:19;15.40;99.90
5759;DHT22;2904;48.788;9.196;2022-10-16T04:59:45;15.40;99.90
5759;DHT22;2904;48.788;9.196;2022-10-16T05:02:10;15.30;99.90
5759;DHT22;2904;48.788;9.196;2022-10-16T05:04:36;15.30;99.90
5759;DHT22;2904;48.788;9.196;2022-10-16T05:07:01;15.30;99.90
5759;DHT22;2904;48.788;9.196;2022-10-16T05:09:27;15.30;99.90
5759;DHT22;2904;48.788;9.196;2022-10-16T05:11:53;15.30;99.90
5759;DHT22;2904;48.788;9.196;2022-10-16T05:14:18;15.30;99.90
5759;DHT22;2904;48.788;9.196;2022-10-16T05:16:44;15.30;99.90
5759;DHT22;2904;48.788;9.196;2022-10-16T05:19:10;15.30;99.90
5759;DHT22;2904;48.788;9.196;2022-10-16T05:21:35;15.30;99.90
5759;DHT22;2904;48.788;9.196;2022-10-16T05:24:01;15.30;99.90
5759;DHT22;2904;48.788;9.196;2022-10-16T05:26:26;15.30;99.90
5759;DHT22;2904;48.788;9.196;2022-10-16T05:28:52;15.30;99.90
5759;DHT22;2904;48.788;9.196;2022-10-16T05:31:18;15.30;99.90
5759;DHT22;2904;48.788;9.196;2022-10-16T05:33:43;15.20;99.90
5759;DHT22;2904;48.788;9.196;2022-10-16T05:36:10;15.20;99.90
5759;DHT22;2904;48.788;9.196;2022-10-16T05:38:36;15.20;99.90
5759;DHT22;2904;48.788;9.196;2022-10-16T05:41:03;15.10;99.90
5759;DHT22;2904;48.788;9.196;2022-10-16T05:43:30;15.10;99.90
5759;DHT22;2904;48.788;9.196;2022-10-16T05:46:05;15.00;99.90
5759;DHT22;2904;48.788;9.196;2022-10-16T05:48:31;15.10;99.90
5759;DHT22;2904;48.788;9.196;2022-10-16T05:51:02;15.00;99.90
5759;DHT22;2904;48.788;9.196;2022-10-16T05:53:29;15.00;99.90
5759;DHT22;2904;48.788;9.196;2022-10-16T05:55:56;15.00;99.90
5759;DHT22;2904;48.788;9.196;2022-10-16T05:58:22;15.10;99.90
5759;DHT22;2904;48.788;9.196;2022-10-16T06:00:55;15.10;99.90
5759;DHT22;2904;48.788;9.196;2022-10-16T06:03:22;15.10;99.90
5759;DHT22;2904;48.788;9.196;2022-10-16T06:05:47;15.10;99.90
5759;DHT22;2904;48.788;9.196;2022-10-16T06:08:13;15.10;99.90
5759;DHT22;2904;48.788;9.196;2022-10-16T06:10:38;15.10;99.90
5759;DHT22;2904;48.788;9.196;2022-10-16T06:13:04;15.20;99.90
5759;DHT22;2904;48.788;9.196;2022-10-16T06:15:29;15.20;99.90
5759;DHT22;2904;48.788;9.196;2022-10-16T06:17:55;15.20;99.90
5759;DHT22;2904;48.788;9.196;2022-10-16T06:20:21;15.20;99.90
5759;DHT22;2904;48.788;9.196;2022-10-16T06:22:47;15.20;99.90
5759;DHT22;2904;48.788;9.196;2022-10-16T06:25:12;15.20;99.90
5759;DHT22;2904;48.788;9.196;2022-10-16T06:27:41;15.20;99.90
5759;DHT22;2904;48.788;9.196;2022-10-16T06:30:07;15.30;99.90
5759;DHT22;2904;48.788;9.196;2022-10-16T06:32:33;15.30;99.90
5759;DHT22;2904;48.788;9.196;2022-10-16T06:34:59;15.30;99.90
5759;DHT22;2904;48.788;9.196;2022-10-16T06:37:24;15.30;99.90
5759;DHT22;2904;48.788;9.196;2022-10-16T06:39:50;15.30;99.90
5759;DHT22;2904;48.788;9.196;2022-10-16T06:42:18;15.30;99.90
5759;DHT22;2904;48.788;9.196;2022-10-16T06:44:44;15.40;99.90
5759;DHT22;2904;48.788;9.196;2022-10-16T06:47:10;15.40;99.90
5759;DHT22;2904;48.788;9.196;2022-10-16T06:49:35;15.40;99.90
5759;DHT22;2904;48.788;9.196;2022-10-16T06:52:01;15.60;99.90
5759;DHT22;2904;48.788;9.196;2022-10-16T06:54:27;15.60;99.90
5759;DHT22;2904;48.788;9.196;2022-10-16T06:56:53;15.90;99.90
5759;DHT22;2904;48.788;9.196;2022-10-16T06:59:20;15.60;99.90
5759;DHT22;2904;48.788;9.196;2022-10-16T07:01:46;15.70;99.90
5759;DHT22;2904;48.788;9.196;2022-10-16T07:04:12;15.70;99.90
5759;DHT22;2904;48.788;9.196;2022-10-16T07:06:38;15.80;99.90
5759;DHT22;2904;48.788;9.196;2022-10-16T07:09:06;15.80;99.90
5759;DHT22;2904;48.788;9.196;2022-10-16T07:11:32;15.90;99.90
5759;DHT22;2904;48.788;9.196;2022-10-16T07:13:59;15.90;99.90
5759;DHT22;2904;48.788;9.196;2022-10-16T07:16:27;16.00;99.90
5759;DHT22;2904;48.788;9.196;2022-10-16T07:18:57;16.00;99.90
5759;DHT22;2904;48.788;9.196;2022-10-16T07:21:28;16.10;99.90
5759;DHT22;2904;48.788;9.196;2022-10-16T07:23:56;16.10;99.90
5759;DHT22;2904;48.788;9.196;2022-10-16T07:26:23;16.20;99.90
5759;DHT22;2904;48.788;9.196;2022-10-16T07:28:49;16.20;99.90
5759;DHT22;2904;48.788;9.196;2022-10-16T07:31:16;16.30;99.90
5759;DHT22;2904;48.788;9.196;2022-10-16T07:33:43;16.20;99.90
5759;DHT22;2904;48.788;9.196;2022-10-16T07:36:14;16.20;99.90
5759;DHT22;2904;48.788;9.196;2022-10-16T07:38:40;16.20;99.90
5759;DHT22;2904;48.788;9.196;2022-10-16T07:41:13;16.10;99.90
5759;DHT22;2904;48.788;9.196;2022-10-16T07:43:40;16.10;99.90
5759;DHT22;2904;48.788;9.196;2022-10-16T07:46:10;16.10;99.90
5759;DHT22;2904;48.788;9.196;2022-10-16T07:48:36;16.10;99.90
5759;DHT22;2904;48.788;9.196;2022-10-16T07:51:04;16.20;99.90
5759;DHT22;2904;48.788;9.196;2022-10-16T07:53:31;16.20;99.90
5759;DHT22;2904;48.788;9.196;2022-10-16T07:55:58;16.60;99.90
5759;DHT22;2904;48.788;9.196;2022-10-16T07:58:25;16.40;99.90
5759;DHT22;2904;48.788;9.196;2022-10-16T08:00:50;16.50;99.90
5759;DHT22;2904;48.788;9.196;2022-10-16T08:03:16;16.60;99.90
5759;DHT22;2904;48.788;9.196;2022-10-16T08:05:42;16.70;99.90
5759;DHT22;2904;48.788;9.196;2022-10-16T08:08:12;16.50;99.90
5759;DHT22;2904;48.788;9.196;2022-10-16T08:10:38;19.40;99.90
5759;DHT22;2904;48.788;9.196;2022-10-16T08:13:04;16.90;99.90
5759;DHT22;2904;48.788;9.196;2022-10-16T08:15:29;17.00;99.90
5759;DHT22;2904;48.788;9.196;2022-10-16T08:17:57;17.20;99.90
5759;DHT22;2904;48.788;9.196;2022-10-16T08:20:24;17.20;99.90
5759;DHT22;2904;48.788;9.196;2022-10-16T08:22:50;17.30;99.90
5759;DHT22;2904;48.788;9.196;2022-10-16T08:25:15;17.40;99.90
5759;DHT22;2904;48.788;9.196;2022-10-16T08:27:41;17.50;99.90
5759;DHT22;2904;48.788;9.196;2022-10-16T08:30:08;17.60;99.90
5759;DHT22;2904;48.788;9.196;2022-10-16T08:32:34;17.60;99.90
5759;DHT22;2904;48.788;9.196;2022-10-16T08:34:59;17.70;99.90
5759;DHT22;2904;48.788;9.196;2022-10-16T08:37:30;17.80;99.90
5759;DHT22;2904;48.788;9.196;2022-10-16T08:39:56;17.90;99.90
5759;DHT22;2904;48.788;9.196;2022-10-16T08:50:09;18.10;99.90
5759;DHT22;2904;48.788;9.196;2022-10-16T08:52:39;18.20;99.90
5759;DHT22;2904;48.788;9.196;2022-10-16T08:55:06;18.30;99.90
5759;DHT22;2904;48.788;9.196;2022-10-16T08:57:32;18.40;99.90
5759;DHT22;2904;48.788;9.196;2022-10-16T09:00:08;18.40;99.90
5759;DHT22;2904;48.788;9.196;2022-10-16T09:05:57;18.50;99.90
5759;DHT22;2904;48.788;9.196;2022-10-16T09:09:06;18.50;99.90
5759;DHT22;2904;48.788;9.196;2022-10-16T09:21:01;18.60;99.90
5759;DHT22;2904;48.788;9.196;2022-10-16T09:23:32;18.90;99.90
5759;DHT22;2904;48.788;9.196;2022-10-16T09:25:59;18.90;99.90
5759;DHT22;2904;48.788;9.196;2022-10-16T09:28:25;18.90;99.90
5759;DHT22;2904;48.788;9.196;2022-10-16T09:30:51;18.90;99.90
5759;DHT22;2904;48.788;9.196;2022-10-16T09:33:23;18.90;99.90
5759;DHT22;2904;48.788;9.196;2022-10-16T09:35:53;18.90;99.90
5759;DHT22;2904;48.788;9.196;2022-10-16T09:38:31;18.90;99.90
5759;DHT22;2904;48.788;9.196;2022-10-16T09:40:59;18.90;99.90
5759;DHT22;2904;48.788;9.196;2022-10-16T09:43:40;19.00;99.90
5759;DHT22;2904;48.788;9.196;2022-10-16T09:46:09;19.00;99.90
5759;DHT22;2904;48.788;9.196;2022-10-16T09:48:48;19.00;99.90
5759;DHT22;2904;48.788;9.196;2022-10-16T09:51:24;19.00;99.90
5759;DHT22;2904;48.788;9.196;2022-10-16T09:53:58;19.00;99.90
5759;DHT22;2904;48.788;9.196;2022-10-16T09:56:30;19.10;99.90
5759;DHT22;2904;48.788;9.196;2022-10-16T09:59:00;19.10;99.90
5759;DHT22;2904;48.788;9.196;2022-10-16T10:01:38;19.30;99.90
5759;DHT22;2904;48.788;9.196;2022-10-16T10:04:05;19.70;99.90
5759;DHT22;2904;48.788;9.196;2022-10-16T10:06:37;19.60;99.90
5759;DHT22;2904;48.788;9.196;2022-10-16T10:10:58;19.80;99.90
5759;DHT22;2904;48.788;9.196;2022-10-16T10:13:24;19.90;99.90
5759;DHT22;2904;48.788;9.196;2022-10-16T10:15:52;20.00;99.90
5759;DHT22;2904;48.788;9.196;2022-10-16T10:18:20;20.10;99.90
5759;DHT22;2904;48.788;9.196;2022-10-16T10:21:00;20.20;99.90
5759;DHT22;2904;48.788;9.196;2022-10-16T10:23:28;20.20;99.90
5759;DHT22;2904;48.788;9.196;2022-10-16T10:26:15;20.20;99.90
5759;DHT22;2904;48.788;9.196;2022-10-16T10:28:55;20.20;99.90
5759;DHT22;2904;48.788;9.196;2022-10-16T10:39:15;20.30;99.90
5759;DHT22;2904;48.788;9.196;2022-10-16T10:42:06;20.60;99.90
5759;DHT22;2904;48.788;9.196;2022-10-16T10:45:59;20.70;99.90
5759;DHT22;2904;48.788;9.196;2022-10-16T10:48:51;20.90;99.90
5759;DHT22;2904;48.788;9.196;2022-10-16T10:52:58;21.10;99.90
5759;DHT22;2904;48.788;9.196;2022-10-16T10:55:54;21.20;99.90
5759;DHT22;2904;48.788;9.196;2022-10-16T11:05:58;21.20;99.90
5759;DHT22;2904;48.788;9.196;2022-10-16T11:08:39;21.20;99.90
5759;DHT22;2904;48.788;9.196;2022-10-16T11:15:39;21.30;99.90
5759;DHT22;2904;48.788;9.196;2022-10-16T11:18:26;21.30;99.90
5759;DHT22;2904;48.788;9.196;2022-10-16T11:21:02;21.40;99.90
5759;DHT22;2904;48.788;9.196;2022-10-16T11:23:53;21.40;99.90
5759;DHT22;2904;48.788;9.196;2022-10-16T11:26:27;21.40;99.90
5759;DHT22;2904;48.788;9.196;2022-10-16T11:28:55;21.50;99.90
5759;DHT22;2904;48.788;9.196;2022-10-16T11:31:32;21.60;99.90
5759;DHT22;2904;48.788;9.196;2022-10-16T11:34:51;21.60;99.90
5759;DHT22;2904;48.788;9.196;2022-10-16T11:37:21;21.70;99.90
5759;DHT22;2904;48.788;9.196;2022-10-16T11:39:50;21.70;99.90
5759;DHT22;2904;48.788;9.196;2022-10-16T11:42:25;21.80;99.90
5759;DHT22;2904;48.788;9.196;2022-10-16T11:45:43;21.80;99.90
5759;DHT22;2904;48.788;9.196;2022-10-16T11:54:26;22.20;99.90
5759;DHT22;2904;48.788;9.196;2022-10-16T11:56:59;22.40;99.90
5759;DHT22;2904;48.788;9.196;2022-10-16T11:59:45;22.60;99.90
5759;DHT22;2904;48.788;9.196;2022-10-16T12:02:35;22.70;99.90
5759;DHT22;2904;48.788;9.196;2022-10-16T12:06:42;22.80;99.90
5759;DHT22;2904;48.788;9.196;2022-10-16T12:09:25;23.00;99.90
5759;DHT22;2904;48.788;9.196;2022-10-16T12:11:51;23.10;99.90
5759;DHT22;2904;48.788;9.196;2022-10-16T12:14:21;23.10;99.90
5759;DHT22;2904;48.788;9.196;2022-10-16T12:17:01;23.10;99.90
5759;DHT22;2904;48.788;9.196;2022-10-16T12:19:29;23.20;99.90
5759;DHT22;2904;48.788;9.196;2022-10-16T12:22:00;23.20;99.90
5759;DHT22;2904;48.788;9.196;2022-10-16T12:24:41;23.20;99.90
5759;DHT22;2904;48.788;9.196;2022-10-16T12:27:29;23.20;99.90
5759;DHT22;2904;48.788;9.196;2022-10-16T12:30:00;23.30;99.90
5759;DHT22;2904;48.788;9.196;2022-10-16T12:32:33;23.40;99.90
5759;DHT22;2904;48.788;9.196;2022-10-16T12:35:00;23.50;99.90
5759;DHT22;2904;48.788;9.196;2022-10-16T12:37:35;23.60;99.90
5759;DHT22;2904;48.788;9.196;2022-10-16T12:41:01;23.60;99.90
5759;DHT22;2904;48.788;9.196;2022-10-16T12:43:39;26.60;99.90
5759;DHT22;2904;48.788;9.196;2022-10-16T12:46:35;23.40;99.90
5759;DHT22;2904;48.788;9.196;2022-10-16T12:49:23;23.30;99.90
5759;DHT22;2904;48.788;9.196;2022-10-16T12:51:55;23.30;99.90
5759;DHT22;2904;48.788;9.196;2022-10-16T12:54:29;23.20;99.90
5759;DHT22;2904;48.788;9.196;2022-10-16T13:02:57;23.20;99.90
5759;DHT22;2904;48.788;9.196;2022-10-16T13:06:16;23.00;99.90
5759;DHT22;2904;48.788;9.196;2022-10-16T13:10:25;22.90;99.90
5759;DHT22;2904;48.788;9.196;2022-10-16T13:13:23;22.80;99.90
5759;DHT22;2904;48.788;9.196;2022-10-16T13:16:21;22.80;99.90
5759;DHT22;2904;48.788;9.196;2022-10-16T13:19:12;22.90;99.90
5759;DHT22;2904;48.788;9.196;2022-10-16T13:22:17;23.00;99.90
5759;DHT22;2904;48.788;9.196;2022-10-16T13:25:19;23.10;99.90
5759;DHT22;2904;48.788;9.196;2022-10-16T13:28:05;23.10;99.90
5759;DHT22;2904;48.788;9.196;2022-10-16T13:30:43;23.20;99.90
5759;DHT22;2904;48.788;9.196;2022-10-16T13:33:23;23.20;99.90
5759;DHT22;2904;48.788;9.196;2022-10-16T13:35:56;23.20;99.90
5759;DHT22;2904;48.788;9.196;2022-10-16T13:38:26;23.30;99.90
5759;DHT22;2904;48.788;9.196;2022-10-16T13:41:12;23.30;99.90
5759;DHT22;2904;48.788;9.196;2022-10-16T13:43:44;23.30;99.90
5759;DHT22;2904;48.788;9.196;2022-10-16T13:46:21;23.40;99.90
5759;DHT22;2904;48.788;9.196;2022-10-16T13:49:02;23.40;99.90
5759;DHT22;2904;48.788;9.196;2022-10-16T13:51:29;23.50;99.90
5759;DHT22;2904;48.788;9.196;2022-10-16T13:53:56;23.50;99.90
5759;DHT22;2904;48.788;9.196;2022-10-16T13:56:26;23.50;99.90
5759;DHT22;2904;48.788;9.196;2022-10-16T13:59:54;23.50;99.90
5759;DHT22;2904;48.788;9.196;2022-10-16T14:02:41;23.60;99.90
5759;DHT22;2904;48.788;9.196;2022-10-16T14:05:09;23.50;99.90
5759;DHT22;2904;48.788;9.196;2022-10-16T14:07:36;23.40;99.90
5759;DHT22;2904;48.788;9.196;2022-10-16T14:10:06;23.40;99.90
5759;DHT22;2904;48.788;9.196;2022-10-16T14:12:32;23.10;99.90
5759;DHT22;2904;48.788;9.196;2022-10-16T14:14:59;23.10;99.90
5759;DHT22;2904;48.788;9.196;2022-10-16T14:17:34;23.00;99.90
5759;DHT22;2904;48.788;9.196;2022-10-16T14:20:04;23.00;99.90
5759;DHT22;2904;48.788;9.196;2022-10-16T14:23:52;22.90;99.90
5759;DHT22;2904;48.788;9.196;2022-10-16T14:26:20;22.90;99.90
5759;DHT22;2904;48.788;9.196;2022-10-16T14:28:48;22.90;99.90
5759;DHT22;2904;48.788;9.196;2022-10-16T14:31:26;22.90;99.90
5759;DHT22;2904;48.788;9.196;2022-10-16T14:33:52;23.00;99.90
5759;DHT22;2904;48.788;9.196;2022-10-16T14:36:18;23.00;99.90
5759;DHT22;2904;48.788;9.196;2022-10-16T14:39:06;23.00;99.90
5759;DHT22;2904;48.788;9.196;2022-10-16T14:41:48;22.90;99.90
5759;DHT22;2904;48.788;9.196;2022-10-16T14:44:17;22.90;99.90
5759;DHT22;2904;48.788;9.196;2022-10-16T14:46:44;22.80;99.90
5759;DHT22;2904;48.788;9.196;2022-10-16T14:49:17;22.80;99.90
5759;DHT22;2904;48.788;9.196;2022-10-16T14:51:45;22.80;99.90
5759;DHT22;2904;48.788;9.196;2022-10-16T14:54:15;23.00;99.90
5759;DHT22;2904;48.788;9.196;2022-10-16T14:56:51;23.00;99.90
5759;DHT22;2904;48.788;9.196;2022-10-16T14:59:51;23.10;99.90
5759;DHT22;2904;48.788;9.196;2022-10-16T15:02:31;23.00;99.90
5759;DHT22;2904;48.788;9.196;2022-10-16T15:05:07;23.00;99.90
5759;DHT22;2904;48.788;9.196;2022-10-16T15:07:35;23.00;99.90
5759;DHT22;2904;48.788;9.196;2022-10-16T15:10:01;23.10;99.90
5759;DHT22;2904;48.788;9.196;2022-10-16T15:12:27;23.10;99.90
5759;DHT22;2904;48.788;9.196;2022-10-16T15:14:52;23.10;99.90
5759;DHT22;2904;48.788;9.196;2022-10-16T15:17:18;23.10;99.90
5759;DHT22;2904;48.788;9.196;2022-10-16T15:19:44;23.10;99.90
5759;DHT22;2904;48.788;9.196;2022-10-16T15:22:11;23.10;99.90
5759;DHT22;2904;48.788;9.196;2022-10-16T15:24:37;23.20;99.90
5759;DHT22;2904;48.788;9.196;2022-10-16T15:27:03;23.20;99.90
5759;DHT22;2904;48.788;9.196;2022-10-16T15:29:28;23.20;99.90
5759;DHT22;2904;48.788;9.196;2022-10-16T15:31:54;23.20;99.90
5759;DHT22;2904;48.788;9.196;2022-10-16T15:34:20;23.20;99.90
5759;DHT22;2904;48.788;9.196;2022-10-16T15:36:46;23.00;99.90
5759;DHT22;2904;48.788;9.196;2022-10-16T15:39:16;23.00;99.90
5759;DHT22;2904;48.788;9.196;2022-10-16T15:41:44;22.80;99.90
5759;DHT22;2904;48.788;9.196;2022-10-16T15:44:10;22.60;99.90
5759;DHT22;2904;48.788;9.196;2022-10-16T15:49:03;17.40;99.90
5759;DHT22;2904;48.788;9.196;2022-10-16T15:51:28;22.30;99.90
5759;DHT22;2904;48.788;9.196;2022-10-16T15:53:56;22.20;99.90
5759;DHT22;2904;48.788;9.196;2022-10-16T15:56:22;22.30;99.90
5759;DHT22;2904;48.788;9.196;2022-10-16T16:01:16;22.10;99.90
5759;DHT22;2904;48.788;9.196;2022-10-16T16:03:42;21.90;99.90
5759;DHT22;2904;48.788;9.196;2022-10-16T16:06:09;21.80;99.90
5759;DHT22;2904;48.788;9.196;2022-10-16T16:08:36;21.70;99.90
5759;DHT22;2904;48.788;9.196;2022-10-16T16:11:05;21.50;99.90
5759;DHT22;2904;48.788;9.196;2022-10-16T16:13:31;21.50;99.90
5759;DHT22;2904;48.788;9.196;2022-10-16T16:15:57;21.50;99.90
5759;DHT22;2904;48.788;9.196;2022-10-16T16:18:23;21.30;99.90
5759;DHT22;2904;48.788;9.196;2022-10-16T16:20:52;21.20;99.90
5759;DHT22;2904;48.788;9.196;2022-10-16T16:23:18;21.10;99.90
5759;DHT22;2904;48.788;9.196;2022-10-16T16:25:45;21.00;99.90
5759;DHT22;2904;48.788;9.196;2022-10-16T16:28:27;20.80;99.90
5759;DHT22;2904;48.788;9.196;2022-10-16T16:30:52;20.80;99.90
5759;DHT22;2904;48.788;9.196;2022-10-16T16:33:18;20.50;99.90
5759;DHT22;2904;48.788;9.196;2022-10-16T16:35:43;20.40;99.90
5759;DHT22;2904;48.788;9.196;2022-10-16T16:38:09;20.40;99.90
5759;DHT22;2904;48.788;9.196;2022-10-16T16:40:34;22.50;99.90
5759;DHT22;2904;48.788;9.196;2022-10-16T16:43:00;20.20;99.90
5759;DHT22;2904;48.788;9.196;2022-10-16T16:45:25;20.10;99.90
5759;DHT22;2904;48.788;9.196;2022-10-16T16:47:51;20.10;99.90
5759;DHT22;2904;48.788;9.196;2022-10-16T16:50:17;20.00;99.90
5759;DHT22;2904;48.788;9.196;2022-10-16T16:52:42;19.90;99.90
5759;DHT22;2904;48.788;9.196;2022-10-16T16:55:08;19.90;99.90
5759;DHT22;2904;48.788;9.196;2022-10-16T16:57:34;19.80;99.90
5759;DHT22;2904;48.788;9.196;2022-10-16T16:59:59;19.80;99.90
5759;DHT22;2904;48.788;9.196;2022-10-16T17:02:25;19.80;99.90
5759;DHT22;2904;48.788;9.196;2022-10-16T17:04:50;19.80;99.90
5759;DHT22;2904;48.788;9.196;2022-10-16T17:07:16;19.70;99.90
5759;DHT22;2904;48.788;9.196;2022-10-16T17:09:42;19.70;99.90
5759;DHT22;2904;48.788;9.196;2022-10-16T17:12:07;19.60;99.90
5759;DHT22;2904;48.788;9.196;2022-10-16T17:14:33;19.60;99.90
5759;DHT22;2904;48.788;9.196;2022-10-16T17:16:59;19.50;99.90
5759;DHT22;2904;48.788;9.196;2022-10-16T17:19:24;19.40;99.90
5759;DHT22;2904;48.788;9.196;2022-10-16T17:21:50;19.40;99.90
5759;DHT22;2904;48.788;9.196;2022-10-16T17:24:16;19.30;99.90
5759;DHT22;2904;48.788;9.196;2022-10-16T17:26:43;19.30;99.90
5759;DHT22;2904;48.788;9.196;2022-10-16T17:29:14;19.30;99.90
5759;DHT22;2904;48.788;9.196;2022-10-16T17:31:40;19.20;99.90
5759;DHT22;2904;48.788;9.196;2022-10-16T17:34:08;19.10;99.90
5759;DHT22;2904;48.788;9.196;2022-10-16T17:36:35;19.10;99.90
5759;DHT22;2904;48.788;9.196;2022-10-16T17:39:07;19.10;99.90
5759;DHT22;2904;48.788;9.196;2022-10-16T17:41:34;18.90;99.90
5759;DHT22;2904;48.788;9.196;2022-10-16T17:44:01;18.90;99.90
5759;DHT22;2904;48.788;9.196;2022-10-16T17:46:28;18.80;99.90